Time;durP1;ratioP1;P1;durP2;ratioP2;P2;SDS_P1;SDS_P2;PMS_P1;PMS_P2;Temp;Humidity;BMP_temperature;BMP_pressure;BME280_temperature;BME280_humidity;BME280_pressure;Samples;Min_cycle;Max_cycle;Signal;HPM_P1;HPM_P2
2021/04/08 00:01:50;;;;;;;18.97;6.37;;;;;;;;;;5052751;28;20029;-78
2021/04/08 00:04:16;;;;;;;12.90;4.93;;;;;;;;;;5054462;28;20388;-78
2021/04/08 00:06:41;;;;;;;17.03;5.93;;;;;;;;;;5052671;28;20060;-78
2021/04/08 00:09:06;;;;;;;16.13;5.33;;;;;;;;;;5054247;28;20388;-78
2021/04/08 00:11:31;;;;;;;15.67;5.50;;;;;;;;;;5052988;28;20017;-78
2021/04/08 00:13:56;;;;;;;16.87;5.67;;;;;;;;;;5052617;28;20028;-78
2021/04/08 00:16:22;;;;;;;11.90;5.40;;;;;;;;;;5052060;28;20067;-77
2021/04/08 00:18:47;;;;;;;19.90;6.40;;;;;;;;;;5053971;28;20020;-78
2021/04/08 00:21:12;;;;;;;16.57;6.00;;;;;;;;;;5052839;28;20337;-78
2021/04/08 00:23:37;;;;;;;11.47;5.17;;;;;;;;;;5052397;28;20036;-78
2021/04/08 00:26:03;;;;;;;18.60;5.20;;;;;;;;;;5053934;28;20107;-78
2021/04/08 00:28:28;;;;;;;13.83;5.63;;;;;;;;;;5054127;28;20551;-78
2021/04/08 00:30:53;;;;;;;18.43;5.63;;;;;;;;;;5054657;28;20025;-78
2021/04/08 00:33:18;;;;;;;23.67;5.57;;;;;;;;;;5055145;28;20099;-78
2021/04/08 00:35:44;;;;;;;21.83;5.80;;;;;;;;;;5047526;28;20017;-78
2021/04/08 00:38:10;;;;;;;24.97;5.87;;;;;;;;;;5054822;28;20033;-78
2021/04/08 00:40:35;;;;;;;18.10;5.70;;;;;;;;;;5054909;28;20017;-77
2021/04/08 00:43:01;;;;;;;16.43;6.30;;;;;;;;;;5054895;28;20017;-78
2021/04/08 00:45:26;;;;;;;15.23;5.83;;;;;;;;;;5086944;28;20035;-77
2021/04/08 00:47:51;;;;;;;13.13;4.87;;;;;;;;;;5053360;28;20053;-78
2021/04/08 00:50:17;;;;;;;18.40;5.57;;;;;;;;;;5054895;28;20029;-78
2021/04/08 00:52:44;;;;;;;19.30;5.40;;;;;;;;;;5054509;28;20044;-78
2021/04/08 00:55:10;;;;;;;18.53;5.67;;;;;;;;;;5055237;28;20017;-78
2021/04/08 00:57:35;;;;;;;17.37;5.87;;;;;;;;;;5053931;28;20517;-78
2021/04/08 01:00:05;;;;;;;14.27;5.70;;;;;;;;;;5054667;28;20096;-78
2021/04/08 01:02:30;;;;;;;13.00;5.40;;;;;;;;;;5054234;28;20345;-78
2021/04/08 01:04:56;;;;;;;12.73;5.57;;;;;;;;;;5053237;28;20035;-78
2021/04/08 01:07:21;;;;;;;13.53;5.23;;;;;;;;;;5054468;28;20104;-78
2021/04/08 01:09:46;;;;;;;13.73;5.43;;;;;;;;;;5054135;28;20120;-77
2021/04/08 01:12:12;;;;;;;10.90;5.00;;;;;;;;;;5053077;28;20036;-78
2021/04/08 01:14:37;;;;;;;15.40;5.17;;;;;;;;;;5069533;28;20376;-77
2021/04/08 01:17:02;;;;;;;12.27;5.30;;;;;;;;;;5052751;28;20017;-77
2021/04/08 01:19:27;;;;;;;15.95;4.50;;;;;;;;;;5054266;28;20460;-77
2021/04/08 01:22:01;;;;;;;12.80;5.18;;;;;;;;;;5052319;28;20043;-78
2021/04/08 01:24:49;;;;;;;11.00;4.40;;;;;;;;;;5053975;28;20163;-78
2021/04/08 01:27:18;;;;;;;13.50;4.80;;;;;;;;;;5054214;28;20021;-78
2021/04/08 01:30:02;;;;;;;13.30;4.93;;;;;;;;;;5053977;28;20023;-77
2021/04/08 01:32:28;;;;;;;14.60;4.50;;;;;;;;;;5052727;28;20388;-78
2021/04/08 01:34:55;;;;;;;13.37;5.50;;;;;;;;;;5053766;28;20020;-78
2021/04/08 01:37:24;;;;;;;14.33;4.23;;;;;;;;;;5052737;28;20384;-78
2021/04/08 01:39:50;;;;;;;12.87;4.37;;;;;;;;;;5053809;28;20469;-78
2021/04/08 01:42:15;;;;;;;12.63;4.07;;;;;;;;;;5052660;28;20021;-77
2021/04/08 01:44:41;;;;;;;11.57;4.50;;;;;;;;;;5053464;28;20035;-78
2021/04/08 01:47:09;;;;;;;9.53;4.30;;;;;;;;;;5050424;28;20552;-78
2021/04/08 01:49:36;;;;;;;14.13;4.17;;;;;;;;;;5052250;28;20025;-77
2021/04/08 01:52:01;;;;;;;13.37;4.57;;;;;;;;;;5051892;28;20061;-78
2021/04/08 01:54:29;;;;;;;10.03;4.23;;;;;;;;;;5053619;28;20056;-78
2021/04/08 01:56:56;;;;;;;11.53;4.17;;;;;;;;;;5053598;28;20032;-78
2021/04/08 01:59:23;;;;;;;12.67;4.33;;;;;;;;;;5046382;28;20017;-78
2021/04/08 02:01:48;;;;;;;9.37;3.63;;;;;;;;;;5046125;28;20028;-78
2021/04/08 02:04:13;;;;;;;12.57;4.20;;;;;;;;;;5051906;28;20024;-78
2021/04/08 02:06:39;;;;;;;11.70;4.23;;;;;;;;;;5068691;28;20021;-78
2021/04/08 02:09:05;;;;;;;15.20;4.13;;;;;;;;;;5068516;28;20025;-78
2021/04/08 02:11:31;;;;;;;17.03;4.60;;;;;;;;;;5051968;28;20438;-78
2021/04/08 02:13:56;;;;;;;18.23;4.40;;;;;;;;;;5067352;28;20025;-78
2021/04/08 02:16:22;;;;;;;10.43;4.27;;;;;;;;;;5051828;28;20033;-77
2021/04/08 02:18:48;;;;;;;10.47;3.93;;;;;;;;;;5053268;28;20073;-78
2021/04/08 02:21:14;;;;;;;15.17;4.20;;;;;;;;;;5052794;28;20013;-78
2021/04/08 02:23:40;;;;;;;11.17;4.67;;;;;;;;;;5051880;28;20031;-78
2021/04/08 02:26:07;;;;;;;15.33;4.80;;;;;;;;;;5052444;28;20107;-78
2021/04/08 02:28:33;;;;;;;15.23;4.30;;;;;;;;;;5052605;28;20021;-78
2021/04/08 02:30:58;;;;;;;11.53;3.97;;;;;;;;;;5052560;28;20035;-78
2021/04/08 02:33:25;;;;;;;12.50;4.13;;;;;;;;;;5052852;28;20687;-78
2021/04/08 02:35:51;;;;;;;14.73;4.33;;;;;;;;;;5052746;28;20031;-78
2021/04/08 02:38:17;;;;;;;15.23;4.07;;;;;;;;;;5051226;28;20399;-78
2021/04/08 02:40:43;;;;;;;12.00;4.17;;;;;;;;;;5050847;28;20055;-78
2021/04/08 02:43:09;;;;;;;16.63;4.63;;;;;;;;;;5067565;28;20025;-78
2021/04/08 02:45:34;;;;;;;12.27;3.73;;;;;;;;;;5052230;28;20211;-78
2021/04/08 02:47:59;;;;;;;15.37;4.47;;;;;;;;;;5051219;28;20116;-77
2021/04/08 02:50:25;;;;;;;14.00;4.20;;;;;;;;;;5052122;28;20062;-78
2021/04/08 02:53:08;;;;;;;11.87;3.80;;;;;;;;;;5052520;28;20433;-78
2021/04/08 02:55:46;;;;;;;16.13;3.77;;;;;;;;;;5051996;28;20045;-78
2021/04/08 02:58:14;;;;;;;14.47;3.90;;;;;;;;;;5052332;28;20033;-78
2021/04/08 03:00:56;;;;;;;14.93;4.27;;;;;;;;;;5051026;28;20024;-77
2021/04/08 03:03:23;;;;;;;11.10;4.37;;;;;;;;;;5050817;28;20024;-77
2021/04/08 03:05:49;;;;;;;11.50;4.07;;;;;;;;;;5051980;28;20021;-78
2021/04/08 03:08:17;;;;;;;14.33;4.20;;;;;;;;;;5051524;28;20082;-78
2021/04/08 03:10:44;;;;;;;14.87;4.23;;;;;;;;;;5050611;28;20021;-78
2021/04/08 03:13:10;;;;;;;13.10;4.27;;;;;;;;;;5049634;28;20041;-78
2021/04/08 03:15:36;;;;;;;10.17;4.00;;;;;;;;;;5066250;28;20017;-78
2021/04/08 03:18:03;;;;;;;10.93;4.30;;;;;;;;;;5050461;28;20013;-78
2021/04/08 03:20:29;;;;;;;11.10;4.10;;;;;;;;;;5049865;28;20117;-78
2021/04/08 03:22:54;;;;;;;19.73;3.83;;;;;;;;;;5049056;28;20060;-78
2021/04/08 03:25:20;;;;;;;10.57;3.93;;;;;;;;;;5049281;28;20021;-78
2021/04/08 03:27:47;;;;;;;11.77;3.60;;;;;;;;;;5067303;28;20017;-78
2021/04/08 03:30:13;;;;;;;12.50;4.50;;;;;;;;;;5051900;28;20133;-78
2021/04/08 03:32:38;;;;;;;10.43;4.57;;;;;;;;;;5051801;28;20464;-78
2021/04/08 03:35:05;;;;;;;10.80;4.03;;;;;;;;;;5050741;28;20025;-78
2021/04/08 03:37:30;;;;;;;13.50;4.07;;;;;;;;;;5067506;28;20021;-78
2021/04/08 03:39:55;;;;;;;9.13;3.83;;;;;;;;;;5067272;28;20087;-78
2021/04/08 03:42:21;;;;;;;14.03;3.80;;;;;;;;;;5051957;28;20017;-78
2021/04/08 03:44:46;;;;;;;6.87;3.40;;;;;;;;;;5050533;28;20060;-78
2021/04/08 03:47:13;;;;;;;13.93;4.13;;;;;;;;;;5051627;28;20017;-78
2021/04/08 03:49:39;;;;;;;11.67;4.00;;;;;;;;;;5051735;28;20099;-78
2021/04/08 03:52:05;;;;;;;13.77;3.83;;;;;;;;;;5051490;28;20157;-78
2021/04/08 03:54:31;;;;;;;9.93;3.80;;;;;;;;;;5050431;28;20017;-78
2021/04/08 03:56:56;;;;;;;11.37;3.73;;;;;;;;;;5051142;28;20024;-78
2021/04/08 03:59:24;;;;;;;10.47;3.70;;;;;;;;;;5050558;28;20021;-78
2021/04/08 04:01:49;;;;;;;9.67;4.00;;;;;;;;;;5051704;28;20048;-78
2021/04/08 04:04:15;;;;;;;10.80;3.83;;;;;;;;;;5051687;28;20021;-78
2021/04/08 04:06:42;;;;;;;10.70;4.00;;;;;;;;;;5051481;28;20725;-78
2021/04/08 04:09:12;;;;;;;12.10;4.07;;;;;;;;;;5050343;28;20025;-78
2021/04/08 04:11:38;;;;;;;12.03;3.90;;;;;;;;;;5050104;28;20373;-78
2021/04/08 04:14:06;;;;;;;10.70;3.97;;;;;;;;;;5050354;28;20071;-77
2021/04/08 04:16:31;;;;;;;12.77;3.90;;;;;;;;;;5050460;28;20021;-78
2021/04/08 04:18:56;;;;;;;13.97;3.97;;;;;;;;;;5051572;28;20025;-78
2021/04/08 04:21:22;;;;;;;8.87;3.73;;;;;;;;;;5049432;28;20468;-77
2021/04/08 04:23:47;;;;;;;13.47;4.03;;;;;;;;;;5051842;28;20075;-78
2021/04/08 04:26:13;;;;;;;11.97;4.10;;;;;;;;;;5050167;28;20104;-78
2021/04/08 04:28:38;;;;;;;10.57;3.97;;;;;;;;;;5051542;28;20025;-78
2021/04/08 04:31:03;;;;;;;9.20;4.00;;;;;;;;;;5051250;28;20078;-78
2021/04/08 04:33:28;;;;;;;10.33;4.00;;;;;;;;;;5053062;28;20088;-78
2021/04/08 04:35:54;;;;;;;9.77;3.87;;;;;;;;;;5055023;28;20021;-78
2021/04/08 04:38:19;;;;;;;10.93;4.17;;;;;;;;;;5053707;28;20471;-78
2021/04/08 04:40:44;;;;;;;12.70;4.23;;;;;;;;;;5053568;28;20017;-77
2021/04/08 04:43:09;;;;;;;15.60;4.03;;;;;;;;;;5054794;28;20013;-78
2021/04/08 04:45:34;;;;;;;12.93;4.30;;;;;;;;;;5053869;28;20070;-78
2021/04/08 04:47:59;;;;;;;10.97;4.30;;;;;;;;;;5053524;28;20376;-78
2021/04/08 04:50:26;;;;;;;10.87;4.13;;;;;;;;;;5054501;28;20028;-78
2021/04/08 04:52:51;;;;;;;11.10;4.10;;;;;;;;;;5053507;28;20051;-77
2021/04/08 04:55:16;;;;;;;15.77;4.80;;;;;;;;;;5054464;28;20492;-78
2021/04/08 04:57:41;;;;;;;7.07;3.87;;;;;;;;;;5053569;28;20031;-78
2021/04/08 05:00:07;;;;;;;11.63;4.93;;;;;;;;;;5053593;28;20036;-78
2021/04/08 05:02:32;;;;;;;10.53;4.13;;;;;;;;;;5052897;28;20044;-77
2021/04/08 05:04:57;;;;;;;11.80;4.20;;;;;;;;;;5054335;28;20017;-78
2021/04/08 05:07:23;;;;;;;12.90;4.57;;;;;;;;;;5052741;28;20021;-78
2021/04/08 05:09:48;;;;;;;12.23;4.50;;;;;;;;;;5053052;28;20056;-78
2021/04/08 05:12:13;;;;;;;11.20;4.30;;;;;;;;;;5054294;28;20067;-78
2021/04/08 05:14:38;;;;;;;8.80;4.50;;;;;;;;;;5053027;28;20464;-77
2021/04/08 05:17:04;;;;;;;11.50;4.90;;;;;;;;;;5053988;28;20032;-77
2021/04/08 05:19:30;;;;;;;9.40;4.30;;;;;;;;;;5052748;28;20158;-78
2021/04/08 05:21:56;;;;;;;13.43;5.00;;;;;;;;;;5052917;28;20388;-78
2021/04/08 05:24:21;;;;;;;16.83;5.23;;;;;;;;;;5054142;28;20032;-78
2021/04/08 05:26:46;;;;;;;14.03;4.60;;;;;;;;;;5054222;28;20029;-78
2021/04/08 05:29:11;;;;;;;12.40;4.23;;;;;;;;;;5053971;28;20025;-78
2021/04/08 05:31:37;;;;;;;13.07;4.77;;;;;;;;;;5054085;28;20101;-78
2021/04/08 05:34:02;;;;;;;9.67;4.47;;;;;;;;;;5053618;28;20373;-78
2021/04/08 05:36:27;;;;;;;15.23;4.77;;;;;;;;;;5052342;28;20048;-78
2021/04/08 05:38:52;;;;;;;14.17;5.03;;;;;;;;;;5069252;28;20029;-78
2021/04/08 05:41:18;;;;;;;18.33;9.00;;;;;;;;;;5053647;28;20029;-78
2021/04/08 05:43:43;;;;;;;32.00;10.60;;;;;;;;;;5052320;28;20102;-77
2021/04/08 05:46:10;;;;;;;25.17;10.67;;;;;;;;;;5053856;28;20100;-78
2021/04/08 05:48:35;;;;;;;30.53;12.03;;;;;;;;;;5053063;28;20028;-78
2021/04/08 05:51:00;;;;;;;24.83;9.57;;;;;;;;;;5050390;28;20071;-77
2021/04/08 05:53:25;;;;;;;17.47;6.50;;;;;;;;;;5051808;28;20025;-78
2021/04/08 05:55:51;;;;;;;12.73;5.80;;;;;;;;;;5064361;28;20025;-78
2021/04/08 05:58:16;;;;;;;14.87;5.37;;;;;;;;;;5053168;28;20031;-77
2021/04/08 06:00:41;;;;;;;16.43;5.13;;;;;;;;;;5053148;28;20032;-78
2021/04/08 06:03:06;;;;;;;12.07;4.97;;;;;;;;;;5051760;28;20480;-77
2021/04/08 06:05:31;;;;;;;12.73;4.70;;;;;;;;;;5052905;28;20495;-78
2021/04/08 06:07:57;;;;;;;13.23;4.83;;;;;;;;;;5052318;28;20024;-78
2021/04/08 06:10:22;;;;;;;15.67;4.33;;;;;;;;;;5051839;28;20021;-78
2021/04/08 06:12:49;;;;;;;15.63;5.13;;;;;;;;;;5051575;28;20029;-77
2021/04/08 06:15:14;;;;;;;17.70;4.90;;;;;;;;;;5049866;28;20016;-78
2021/04/08 06:17:39;;;;;;;12.57;5.00;;;;;;;;;;5051757;28;20514;-78
2021/04/08 06:20:05;;;;;;;10.00;5.10;;;;;;;;;;5051041;28;20025;-78
2021/04/08 06:22:31;;;;;;;11.47;5.10;;;;;;;;;;5051890;28;20075;-77
2021/04/08 06:24:56;;;;;;;10.97;4.73;;;;;;;;;;5047900;28;20368;-78
2021/04/08 06:27:21;;;;;;;13.30;4.60;;;;;;;;;;5050726;28;20025;-77
2021/04/08 06:29:50;;;;;;;14.67;5.20;;;;;;;;;;5049136;28;20052;-78
2021/04/08 06:32:15;;;;;;;15.17;5.57;;;;;;;;;;5050501;28;20025;-78
2021/04/08 06:34:40;;;;;;;16.90;5.57;;;;;;;;;;5052812;28;20392;-77
2021/04/08 06:37:05;;;;;;;10.53;4.70;;;;;;;;;;5052573;28;20357;-77
2021/04/08 06:39:34;;;;;;;16.07;5.53;;;;;;;;;;5052405;28;20053;-78
2021/04/08 06:41:59;;;;;;;16.43;5.00;;;;;;;;;;5051297;28;20047;-77
2021/04/08 06:44:26;;;;;;;12.63;5.80;;;;;;;;;;5052365;28;20048;-77
2021/04/08 06:46:57;;;;;;;18.10;5.60;;;;;;;;;;5052043;28;20091;-78
2021/04/08 06:49:26;;;;;;;10.77;4.90;;;;;;;;;;5051412;28;20028;-77
2021/04/08 06:51:58;;;;;;;14.40;4.87;;;;;;;;;;5051022;28;20255;-78
2021/04/08 06:54:24;;;;;;;11.43;5.07;;;;;;;;;;5051424;28;20116;-76
2021/04/08 06:56:49;;;;;;;12.30;5.43;;;;;;;;;;5067311;28;20391;-77
2021/04/08 06:59:16;;;;;;;14.73;5.80;;;;;;;;;;5052102;28;20388;-78
2021/04/08 07:01:41;;;;;;;11.47;5.70;;;;;;;;;;5050833;28;20074;-78
2021/04/08 07:04:08;;;;;;;13.83;5.60;;;;;;;;;;5050938;28;20111;-78
2021/04/08 07:06:33;;;;;;;12.23;5.77;;;;;;;;;;5051451;28;20031;-77
2021/04/08 07:08:58;;;;;;;8.93;5.20;;;;;;;;;;5050996;28;20104;-78
2021/04/08 07:11:25;;;;;;;13.80;6.00;;;;;;;;;;5051727;28;20024;-78
2021/04/08 07:13:50;;;;;;;18.50;6.53;;;;;;;;;;5050884;28;20480;-78
2021/04/08 07:16:16;;;;;;;14.20;6.27;;;;;;;;;;5051148;28;20051;-78
2021/04/08 07:18:41;;;;;;;17.93;6.90;;;;;;;;;;5052643;28;20090;-77
2021/04/08 07:21:07;;;;;;;16.70;5.70;;;;;;;;;;5052127;28;20366;-78
2021/04/08 07:23:32;;;;;;;14.13;5.87;;;;;;;;;;5051009;28;20516;-78
2021/04/08 07:26:02;;;;;;;13.03;5.60;;;;;;;;;;5050346;28;20103;-78
2021/04/08 07:28:41;;;;;;;18.63;5.37;;;;;;;;;;5051067;28;20499;-78
2021/04/08 07:31:20;;;;;;;16.00;5.00;;;;;;;;;;5055902;28;20020;-78
2021/04/08 07:33:45;;;;;;;18.07;5.50;;;;;;;;;;5052077;28;20020;-78
2021/04/08 07:36:10;;;;;;;10.87;5.13;;;;;;;;;;5051064;28;20029;-77
2021/04/08 07:38:48;;;;;;;13.40;5.77;;;;;;;;;;5049872;28;20079;-78
2021/04/08 07:41:20;;;;;;;10.43;5.10;;;;;;;;;;5051130;28;20066;-77
2021/04/08 07:43:56;;;;;;;17.30;4.82;;;;;;;;;;5066544;28;20057;-77
2021/04/08 07:46:48;;;;;;;8.60;5.00;;;;;;;;;;5050843;28;20029;-77
2021/04/08 07:49:27;;;;;;;22.27;6.33;;;;;;;;;;5051276;28;20025;-78
2021/04/08 07:51:52;;;;;;;14.03;5.40;;;;;;;;;;5050362;28;20051;-78
2021/04/08 07:54:18;;;;;;;14.93;5.43;;;;;;;;;;5051973;28;20013;-77
2021/04/08 07:56:44;;;;;;;18.57;5.67;;;;;;;;;;5048589;28;20025;-78
2021/04/08 07:59:18;;;;;;;11.47;5.93;;;;;;;;;;5050394;28;20096;-77
2021/04/08 08:01:44;;;;;;;21.60;7.60;;;;;;;;;;5045793;28;20028;-78
2021/04/08 08:04:20;;;;;;;12.30;4.90;;;;;;;;;;5037974;28;20029;-77
2021/04/08 08:06:45;;;;;;;15.77;5.07;;;;;;;;;;5052254;28;20099;-78
2021/04/08 08:09:11;;;;;;;10.30;4.97;;;;;;;;;;5055572;28;20092;-78
2021/04/08 08:11:42;;;;;;;9.53;5.30;;;;;;;;;;5054129;28;20540;-78
2021/04/08 08:14:09;;;;;;;20.40;6.33;;;;;;;;;;5055646;28;20033;-77
2021/04/08 08:16:34;;;;;;;12.97;5.47;;;;;;;;;;5055424;28;20345;-78
2021/04/08 08:19:00;;;;;;;9.70;4.93;;;;;;;;;;5055526;28;20135;-79
2021/04/08 08:21:30;;;;;;;9.33;4.63;;;;;;;;;;5053021;28;20013;-79
2021/04/08 08:23:57;;;;;;;9.47;4.80;;;;;;;;;;5042300;28;20029;-79
2021/04/08 08:26:35;;;;;;;15.23;5.33;;;;;;;;;;5053704;28;20023;-79
2021/04/08 08:29:01;;;;;;;9.70;4.20;;;;;;;;;;5055528;28;20163;-79
2021/04/08 08:31:41;;;;;;;11.33;4.53;;;;;;;;;;5053172;28;20289;-79
2021/04/08 08:34:09;;;;;;;10.57;4.63;;;;;;;;;;5065871;28;20025;-79
2021/04/08 08:36:35;;;;;;;12.47;5.50;;;;;;;;;;5054857;28;20078;-79
2021/04/08 08:39:02;;;;;;;12.60;5.17;;;;;;;;;;5053586;28;20021;-79
2021/04/08 08:41:28;;;;;;;11.77;4.80;;;;;;;;;;5054479;28;20108;-79
2021/04/08 08:43:54;;;;;;;14.43;5.67;;;;;;;;;;5054709;28;20056;-79
2021/04/08 08:46:19;;;;;;;17.53;5.63;;;;;;;;;;5051496;28;20407;-79
2021/04/08 08:48:45;;;;;;;9.60;5.50;;;;;;;;;;5052922;28;20021;-78
2021/04/08 08:51:13;;;;;;;12.03;5.30;;;;;;;;;;5051907;28;20025;-79
2021/04/08 08:53:38;;;;;;;12.90;5.70;;;;;;;;;;5068215;28;21975;-79
2021/04/08 08:56:03;;;;;;;11.87;5.90;;;;;;;;;;5051476;28;20525;-79
2021/04/08 08:58:29;;;;;;;11.53;5.77;;;;;;;;;;5051331;28;20025;-79
2021/04/08 09:00:56;;;;;;;12.30;6.80;;;;;;;;;;5047427;28;20158;-79
2021/04/08 09:03:21;;;;;;;15.20;6.13;;;;;;;;;;5051027;28;20024;-79
2021/04/08 09:05:47;;;;;;;17.47;6.60;;;;;;;;;;5052061;28;20025;-80
2021/04/08 09:08:15;;;;;;;18.37;6.73;;;;;;;;;;5052509;28;20021;-79
2021/04/08 09:10:41;;;;;;;12.70;7.30;;;;;;;;;;5074756;28;20025;-79
2021/04/08 09:13:06;;;;;;;19.90;7.87;;;;;;;;;;5053356;28;20024;-79
2021/04/08 09:15:32;;;;;;;22.03;8.10;;;;;;;;;;5052823;28;20032;-79
2021/04/08 09:17:58;;;;;;;18.43;8.60;;;;;;;;;;5052838;28;20048;-79
2021/04/08 09:20:24;;;;;;;17.53;8.17;;;;;;;;;;5052583;28;20025;-79
2021/04/08 09:23:08;;;;;;;16.40;8.57;;;;;;;;;;5053932;28;20515;-80
2021/04/08 09:25:36;;;;;;;16.63;7.87;;;;;;;;;;5052904;28;20039;-80
2021/04/08 09:28:12;;;;;;;19.27;8.37;;;;;;;;;;5054076;28;20029;-82
2021/04/08 09:30:58;;;;;;;18.67;9.10;;;;;;;;;;5052310;28;20036;-82
2021/04/08 09:33:52;;;;;;;15.93;8.20;;;;;;;;;;5054510;28;20424;-81
2021/04/08 09:36:17;;;;;;;18.63;8.73;;;;;;;;;;5044133;28;20040;-80
2021/04/08 09:38:42;;;;;;;17.07;8.23;;;;;;;;;;5054154;28;20021;-80
2021/04/08 09:41:08;;;;;;;13.43;7.07;;;;;;;;;;5052182;28;20460;-80
2021/04/08 09:43:33;;;;;;;13.57;7.40;;;;;;;;;;5052368;28;20159;-80
2021/04/08 09:46:00;;;;;;;13.73;7.47;;;;;;;;;;5053779;28;20040;-79
2021/04/08 09:48:26;;;;;;;12.83;7.00;;;;;;;;;;5052551;28;20014;-80
2021/04/08 09:50:52;;;;;;;12.13;6.73;;;;;;;;;;5052347;28;20357;-80
2021/04/08 09:53:18;;;;;;;13.00;6.17;;;;;;;;;;5069014;28;20036;-80
2021/04/08 09:55:50;;;;;;;17.13;7.30;;;;;;;;;;5053424;28;20017;-80
2021/04/08 09:58:20;;;;;;;17.02;7.65;;;;;;;;;;5053542;28;20487;-80
2021/04/08 10:00:45;;;;;;;13.50;7.33;;;;;;;;;;5051227;28;20102;-80
2021/04/08 10:03:10;;;;;;;12.43;7.73;;;;;;;;;;5050857;28;20483;-80
2021/04/08 10:05:36;;;;;;;13.80;7.60;;;;;;;;;;5051034;28;20104;-80
2021/04/08 10:08:02;;;;;;;12.87;7.07;;;;;;;;;;5050238;28;20035;-80
2021/04/08 10:10:36;;;;;;;14.20;7.27;;;;;;;;;;5066600;28;20033;-80
2021/04/08 10:13:12;;;;;;;16.93;7.50;;;;;;;;;;5066687;28;20066;-80
2021/04/08 10:15:37;;;;;;;14.10;7.27;;;;;;;;;;5050229;28;20029;-80
2021/04/08 10:18:08;;;;;;;13.60;6.87;;;;;;;;;;5051581;28;20025;-80
2021/04/08 10:20:38;;;;;;;14.17;7.33;;;;;;;;;;5050131;28;20840;-80
2021/04/08 10:23:03;;;;;;;17.10;7.43;;;;;;;;;;5055287;28;20021;-80
2021/04/08 10:25:28;;;;;;;14.67;7.30;;;;;;;;;;5052993;28;20027;-80
2021/04/08 10:27:54;;;;;;;17.80;6.77;;;;;;;;;;5053238;28;20029;-80
2021/04/08 10:30:19;;;;;;;12.10;6.37;;;;;;;;;;5050172;28;20488;-80
2021/04/08 10:32:45;;;;;;;15.30;6.60;;;;;;;;;;5051157;28;20510;-79
2021/04/08 10:35:20;;;;;;;18.37;6.87;;;;;;;;;;5052637;28;20035;-80
2021/04/08 10:37:45;;;;;;;13.00;6.70;;;;;;;;;;5051397;28;20108;-80
2021/04/08 10:40:10;;;;;;;9.80;6.07;;;;;;;;;;5052214;28;20041;-80
2021/04/08 10:42:35;;;;;;;14.97;6.50;;;;;;;;;;5051118;28;20029;-80
2021/04/08 10:45:06;;;;;;;20.43;6.50;;;;;;;;;;5050781;28;20024;-80
2021/04/08 10:47:33;;;;;;;14.70;6.73;;;;;;;;;;5051239;28;20125;-79
2021/04/08 10:49:59;;;;;;;13.53;7.30;;;;;;;;;;5051159;28;20423;-79
2021/04/08 10:52:26;;;;;;;12.30;7.37;;;;;;;;;;5060159;28;20389;-80
2021/04/08 10:54:52;;;;;;;14.90;7.07;;;;;;;;;;5050561;28;20025;-80
2021/04/08 10:57:18;;;;;;;20.43;7.33;;;;;;;;;;5050515;28;20037;-79
2021/04/08 10:59:44;;;;;;;13.50;7.97;;;;;;;;;;5050969;28;20021;-80
2021/04/08 11:02:26;;;;;;;15.50;7.07;;;;;;;;;;5051900;28;20017;-80
2021/04/08 11:04:52;;;;;;;14.47;7.47;;;;;;;;;;5047182;28;20082;-80
2021/04/08 11:07:17;;;;;;;17.30;7.67;;;;;;;;;;5066954;28;20445;-80
2021/04/08 11:09:43;;;;;;;17.07;7.20;;;;;;;;;;5050582;28;20107;-80
2021/04/08 11:12:19;;;;;;;14.87;7.80;;;;;;;;;;5049990;28;20102;-80
2021/04/08 11:14:45;;;;;;;19.33;7.10;;;;;;;;;;5077672;28;20021;-80
2021/04/08 11:17:11;;;;;;;14.00;7.77;;;;;;;;;;5050413;28;20021;-80
2021/04/08 11:19:37;;;;;;;15.90;7.70;;;;;;;;;;5064337;28;20239;-79
2021/04/08 11:22:02;;;;;;;13.63;7.77;;;;;;;;;;5049803;28;20019;-80
2021/04/08 11:24:31;;;;;;;11.27;7.20;;;;;;;;;;5049907;28;20087;-80
2021/04/08 11:26:56;;;;;;;12.90;7.83;;;;;;;;;;5050807;28;20025;-80
2021/04/08 11:29:22;;;;;;;22.67;10.23;;;;;;;;;;5051157;28;20040;-80
2021/04/08 11:32:17;;;;;;;17.37;8.47;;;;;;;;;;5050462;28;20029;-80
2021/04/08 11:34:46;;;;;;;12.77;7.63;;;;;;;;;;5058688;28;20124;-80
2021/04/08 11:37:15;;;;;;;20.03;7.97;;;;;;;;;;5049963;28;20028;-79
2021/04/08 11:39:41;;;;;;;16.30;8.60;;;;;;;;;;5048208;28;20403;-79
2021/04/08 11:42:17;;;;;;;14.77;8.20;;;;;;;;;;5085396;28;20108;-80
2021/04/08 11:44:43;;;;;;;12.80;8.77;;;;;;;;;;5049050;28;20032;-79
2021/04/08 11:47:21;;;;;;;18.10;8.40;;;;;;;;;;5070741;28;20021;-79
2021/04/08 11:49:48;;;;;;;16.47;8.17;;;;;;;;;;5050361;28;20057;-80
2021/04/08 11:52:14;;;;;;;16.17;8.50;;;;;;;;;;5054708;28;20082;-80
2021/04/08 11:54:58;;;;;;;15.00;8.10;;;;;;;;;;5054119;28;20075;-80
2021/04/08 11:57:23;;;;;;;14.20;8.70;;;;;;;;;;5055159;28;20100;-80
2021/04/08 11:59:49;;;;;;;16.00;8.20;;;;;;;;;;5054123;28;20184;-80
2021/04/08 12:02:26;;;;;;;18.20;7.97;;;;;;;;;;5052789;28;20441;-79
2021/04/08 12:04:51;;;;;;;15.30;8.17;;;;;;;;;;5053428;28;20385;-80
2021/04/08 12:07:19;;;;;;;17.73;7.83;;;;;;;;;;5054431;28;20021;-80
2021/04/08 12:09:44;;;;;;;16.87;9.23;;;;;;;;;;5070270;28;20048;-80
2021/04/08 12:12:10;;;;;;;16.77;9.10;;;;;;;;;;5053904;28;20036;-80
2021/04/08 12:14:54;;;;;;;16.30;8.33;;;;;;;;;;5052800;28;20029;-79
2021/04/08 12:17:19;;;;;;;18.87;8.57;;;;;;;;;;5082026;28;20075;-80
2021/04/08 12:19:45;;;;;;;18.87;8.73;;;;;;;;;;5044576;28;20021;-80
2021/04/08 12:22:11;;;;;;;19.00;8.63;;;;;;;;;;5070492;28;20392;-79
2021/04/08 12:24:37;;;;;;;13.57;8.03;;;;;;;;;;5052822;28;20032;-79
2021/04/08 12:27:02;;;;;;;20.43;8.90;;;;;;;;;;5053748;28;20587;-80
2021/04/08 12:29:27;;;;;;;12.80;8.67;;;;;;;;;;5070639;28;20033;-79
2021/04/08 12:31:56;;;;;;;18.80;9.23;;;;;;;;;;5045173;28;20136;-79
2021/04/08 12:34:21;;;;;;;17.40;9.43;;;;;;;;;;5065043;28;20033;-80
2021/04/08 12:36:47;;;;;;;13.30;8.43;;;;;;;;;;5052364;28;20090;-80
2021/04/08 12:39:12;;;;;;;20.97;8.73;;;;;;;;;;5052294;28;20111;-80
2021/04/08 12:41:37;;;;;;;15.53;8.10;;;;;;;;;;5069572;28;20013;-80
2021/04/08 12:44:03;;;;;;;20.97;9.47;;;;;;;;;;5050314;28;20029;-80
2021/04/08 12:46:28;;;;;;;14.73;8.80;;;;;;;;;;5069256;28;20021;-80
2021/04/08 12:48:53;;;;;;;22.03;9.07;;;;;;;;;;5054240;28;20021;-79
2021/04/08 12:51:19;;;;;;;19.07;8.57;;;;;;;;;;5053105;28;20392;-80
2021/04/08 12:53:44;;;;;;;14.50;8.50;;;;;;;;;;5053224;28;20032;-80
2021/04/08 12:56:09;;;;;;;15.93;8.43;;;;;;;;;;5053472;28;20028;-80
2021/04/08 12:58:34;;;;;;;14.40;8.13;;;;;;;;;;5053198;28;20033;-81
2021/04/08 13:00:59;;;;;;;16.57;8.27;;;;;;;;;;5051770;28;20013;-80
2021/04/08 13:03:25;;;;;;;14.00;8.07;;;;;;;;;;5053160;28;20096;-80
2021/04/08 13:05:50;;;;;;;17.90;8.57;;;;;;;;;;5056902;28;20035;-79
2021/04/08 13:08:15;;;;;;;14.43;8.97;;;;;;;;;;5064772;28;20033;-80
2021/04/08 13:10:41;;;;;;;16.97;9.50;;;;;;;;;;5052163;28;20037;-80
2021/04/08 13:13:06;;;;;;;19.80;8.97;;;;;;;;;;5052849;28;20037;-80
2021/04/08 13:15:32;;;;;;;17.20;8.33;;;;;;;;;;5057404;28;20472;-80
2021/04/08 13:17:58;;;;;;;19.83;8.90;;;;;;;;;;5052388;28;20033;-80
2021/04/08 13:20:27;;;;;;;16.98;9.35;;;;;;;;;;5052670;28;20342;-80
2021/04/08 13:22:52;;;;;;;11.43;7.80;;;;;;;;;;5052255;28;20020;-80
2021/04/08 13:25:18;;;;;;;15.53;8.73;;;;;;;;;;5051705;28;20738;-79
2021/04/08 13:27:44;;;;;;;14.30;8.70;;;;;;;;;;5052347;28;20028;-79
2021/04/08 13:30:10;;;;;;;14.73;9.20;;;;;;;;;;5046006;28;20028;-80
2021/04/08 13:32:36;;;;;;;18.27;9.40;;;;;;;;;;5053170;28;20028;-79
2021/04/08 13:35:01;;;;;;;17.47;8.40;;;;;;;;;;5053828;28;20027;-80
2021/04/08 13:37:27;;;;;;;14.53;8.80;;;;;;;;;;5053942;28;20029;-80
2021/04/08 13:39:52;;;;;;;18.33;9.77;;;;;;;;;;5051892;28;20060;-80
2021/04/08 13:42:17;;;;;;;17.08;8.95;;;;;;;;;;5051756;28;20438;-79
2021/04/08 13:44:42;;;;;;;15.83;9.50;;;;;;;;;;5052280;28;20029;-80
2021/04/08 13:47:08;;;;;;;16.20;9.27;;;;;;;;;;5051515;28;20025;-80
2021/04/08 13:49:33;;;;;;;13.40;9.07;;;;;;;;;;5052006;28;20020;-79
2021/04/08 13:51:58;;;;;;;16.07;9.53;;;;;;;;;;5053024;28;20107;-79
2021/04/08 13:54:24;;;;;;;15.87;8.90;;;;;;;;;;5050169;28;20017;-80
2021/04/08 13:56:49;;;;;;;14.57;9.93;;;;;;;;;;5052087;28;20029;-80
2021/04/08 13:59:14;;;;;;;12.27;8.55;;;;;;;;;;5053301;28;20019;-80
2021/04/08 14:01:40;;;;;;;19.40;9.77;;;;;;;;;;5051863;28;20415;-79
2021/04/08 14:04:05;;;;;;;18.27;9.13;;;;;;;;;;5068849;28;20036;-79
2021/04/08 14:06:30;;;;;;;21.33;9.40;;;;;;;;;;5068397;28;20024;-79
2021/04/08 14:08:56;;;;;;;15.45;9.43;;;;;;;;;;5058819;28;20029;-80
2021/04/08 14:11:21;;;;;;;17.30;9.80;;;;;;;;;;5051806;28;20024;-80
2021/04/08 14:13:46;;;;;;;18.67;8.35;;;;;;;;;;5068703;28;20033;-80
2021/04/08 14:16:11;;;;;;;16.17;9.23;;;;;;;;;;5053203;28;20215;-79
2021/04/08 14:18:36;;;;;;;15.77;8.93;;;;;;;;;;5052170;28;20017;-79
2021/04/08 14:21:02;;;;;;;14.52;9.45;;;;;;;;;;5052758;28;20040;-80
2021/04/08 14:23:28;;;;;;;18.13;9.23;;;;;;;;;;5051429;28;20020;-80
2021/04/08 14:25:53;;;;;;;16.42;9.38;;;;;;;;;;5052703;28;20021;-80
2021/04/08 14:28:19;;;;;;;14.88;9.40;;;;;;;;;;5051881;28;20017;-80
2021/04/08 14:30:44;;;;;;;14.88;9.35;;;;;;;;;;5052998;28;20021;-80